sensor_id;sensor_type;location;lat;lon;timestamp;P1;durP1;ratioP1;P2;durP2;ratioP2
13571;SDS011;6857;53.484;10.216;2023-04-29T00:01:10;21.17;;;14.53;;
13571;SDS011;6857;53.484;10.216;2023-04-29T00:03:36;17.77;;;14.10;;
13571;SDS011;6857;53.484;10.216;2023-04-29T00:06:01;21.47;;;15.10;;
13571;SDS011;6857;53.484;10.216;2023-04-29T00:08:27;18.00;;;14.70;;
13571;SDS011;6857;53.484;10.216;2023-04-29T00:10:52;20.47;;;13.97;;
13571;SDS011;6857;53.484;10.216;2023-04-29T00:13:18;20.43;;;14.83;;
13571;SDS011;6857;53.484;10.216;2023-04-29T00:15:44;18.73;;;14.40;;
13571;SDS011;6857;53.484;10.216;2023-04-29T00:18:09;21.00;;;14.97;;
13571;SDS011;6857;53.484;10.216;2023-04-29T00:20:35;18.00;;;14.03;;
13571;SDS011;6857;53.484;10.216;2023-04-29T00:23:04;20.03;;;15.17;;
13571;SDS011;6857;53.484;10.216;2023-04-29T00:25:30;21.57;;;14.37;;
13571;SDS011;6857;53.484;10.216;2023-04-29T00:27:56;19.00;;;14.97;;
13571;SDS011;6857;53.484;10.216;2023-04-29T00:30:25;18.53;;;15.43;;
13571;SDS011;6857;53.484;10.216;2023-04-29T00:32:55;19.70;;;15.27;;
13571;SDS011;6857;53.484;10.216;2023-04-29T00:35:20;21.13;;;15.07;;
13571;SDS011;6857;53.484;10.216;2023-04-29T00:37:46;20.47;;;14.97;;
13571;SDS011;6857;53.484;10.216;2023-04-29T00:40:12;19.83;;;14.50;;
13571;SDS011;6857;53.484;10.216;2023-04-29T00:42:41;20.80;;;15.83;;
13571;SDS011;6857;53.484;10.216;2023-04-29T00:45:07;20.17;;;14.80;;
13571;SDS011;6857;53.484;10.216;2023-04-29T00:47:34;16.90;;;14.13;;
13571;SDS011;6857;53.484;10.216;2023-04-29T00:50:00;22.07;;;15.23;;
13571;SDS011;6857;53.484;10.216;2023-04-29T00:52:25;18.53;;;14.03;;
13571;SDS011;6857;53.484;10.216;2023-04-29T00:54:54;20.67;;;15.40;;
13571;SDS011;6857;53.484;10.216;2023-04-29T00:57:20;21.53;;;15.73;;
13571;SDS011;6857;53.484;10.216;2023-04-29T00:59:47;19.07;;;14.60;;
13571;SDS011;6857;53.484;10.216;2023-04-29T01:02:13;17.37;;;14.03;;
13571;SDS011;6857;53.484;10.216;2023-04-29T01:04:40;19.37;;;14.37;;
13571;SDS011;6857;53.484;10.216;2023-04-29T01:07:21;19.33;;;15.03;;
13571;SDS011;6857;53.484;10.216;2023-04-29T01:10:14;19.00;;;14.23;;
13571;SDS011;6857;53.484;10.216;2023-04-29T01:12:56;17.60;;;14.53;;
13571;SDS011;6857;53.484;10.216;2023-04-29T01:18:31;19.53;;;14.33;;
13571;SDS011;6857;53.484;10.216;2023-04-29T01:21:00;20.23;;;14.97;;
13571;SDS011;6857;53.484;10.216;2023-04-29T01:23:29;20.13;;;14.40;;
13571;SDS011;6857;53.484;10.216;2023-04-29T01:25:55;20.67;;;14.93;;
13571;SDS011;6857;53.484;10.216;2023-04-29T01:28:29;20.37;;;14.70;;
13571;SDS011;6857;53.484;10.216;2023-04-29T01:33:40;19.83;;;15.63;;
13571;SDS011;6857;53.484;10.216;2023-04-29T01:38:48;19.17;;;14.77;;
13571;SDS011;6857;53.484;10.216;2023-04-29T01:44:03;19.00;;;15.80;;
13571;SDS011;6857;53.484;10.216;2023-04-29T01:46:32;22.00;;;15.47;;
13571;SDS011;6857;53.484;10.216;2023-04-29T01:48:58;20.67;;;15.30;;
13571;SDS011;6857;53.484;10.216;2023-04-29T01:51:23;21.33;;;16.40;;
13571;SDS011;6857;53.484;10.216;2023-04-29T01:53:49;23.10;;;16.93;;
13571;SDS011;6857;53.484;10.216;2023-04-29T01:56:14;22.50;;;16.83;;
13571;SDS011;6857;53.484;10.216;2023-04-29T01:58:40;21.40;;;15.80;;
13571;SDS011;6857;53.484;10.216;2023-04-29T02:01:05;21.33;;;17.07;;
13571;SDS011;6857;53.484;10.216;2023-04-29T02:03:31;24.23;;;17.47;;
13571;SDS011;6857;53.484;10.216;2023-04-29T02:05:56;22.93;;;17.70;;
13571;SDS011;6857;53.484;10.216;2023-04-29T02:08:23;22.00;;;16.67;;
13571;SDS011;6857;53.484;10.216;2023-04-29T02:10:52;24.80;;;17.90;;
13571;SDS011;6857;53.484;10.216;2023-04-29T02:13:18;27.03;;;18.83;;
13571;SDS011;6857;53.484;10.216;2023-04-29T02:15:44;27.70;;;19.20;;
13571;SDS011;6857;53.484;10.216;2023-04-29T02:18:09;24.60;;;17.90;;
13571;SDS011;6857;53.484;10.216;2023-04-29T02:20:35;25.37;;;18.53;;
13571;SDS011;6857;53.484;10.216;2023-04-29T02:23:00;25.30;;;18.63;;
13571;SDS011;6857;53.484;10.216;2023-04-29T02:25:26;25.73;;;19.30;;
13571;SDS011;6857;53.484;10.216;2023-04-29T02:27:51;25.33;;;19.57;;
13571;SDS011;6857;53.484;10.216;2023-04-29T02:30:17;25.37;;;18.80;;
13571;SDS011;6857;53.484;10.216;2023-04-29T02:32:42;26.13;;;18.63;;
13571;SDS011;6857;53.484;10.216;2023-04-29T02:35:08;26.13;;;19.33;;
13571;SDS011;6857;53.484;10.216;2023-04-29T02:37:34;23.47;;;17.83;;
13571;SDS011;6857;53.484;10.216;2023-04-29T02:40:00;26.87;;;19.60;;
13571;SDS011;6857;53.484;10.216;2023-04-29T02:42:26;22.70;;;18.00;;
13571;SDS011;6857;53.484;10.216;2023-04-29T02:44:52;25.17;;;18.63;;
13571;SDS011;6857;53.484;10.216;2023-04-29T02:47:17;26.13;;;18.93;;
13571;SDS011;6857;53.484;10.216;2023-04-29T02:49:43;25.47;;;19.47;;
13571;SDS011;6857;53.484;10.216;2023-04-29T02:52:08;24.77;;;19.57;;
13571;SDS011;6857;53.484;10.216;2023-04-29T02:54:34;26.33;;;19.50;;
13571;SDS011;6857;53.484;10.216;2023-04-29T02:57:00;26.60;;;18.80;;
13571;SDS011;6857;53.484;10.216;2023-04-29T02:59:25;23.27;;;18.20;;
13571;SDS011;6857;53.484;10.216;2023-04-29T03:01:51;24.57;;;18.00;;
13571;SDS011;6857;53.484;10.216;2023-04-29T03:04:18;27.10;;;17.97;;
13571;SDS011;6857;53.484;10.216;2023-04-29T03:06:44;24.50;;;18.83;;
13571;SDS011;6857;53.484;10.216;2023-04-29T03:09:10;27.87;;;19.57;;
13571;SDS011;6857;53.484;10.216;2023-04-29T03:11:37;25.03;;;18.33;;
13571;SDS011;6857;53.484;10.216;2023-04-29T03:14:02;24.37;;;18.13;;
13571;SDS011;6857;53.484;10.216;2023-04-29T03:16:29;23.03;;;17.60;;
13571;SDS011;6857;53.484;10.216;2023-04-29T03:18:55;24.77;;;17.70;;
13571;SDS011;6857;53.484;10.216;2023-04-29T03:21:21;21.23;;;17.20;;
13571;SDS011;6857;53.484;10.216;2023-04-29T03:23:49;21.43;;;16.13;;
13571;SDS011;6857;53.484;10.216;2023-04-29T03:26:14;20.80;;;16.03;;
13571;SDS011;6857;53.484;10.216;2023-04-29T03:28:40;22.70;;;16.27;;
13571;SDS011;6857;53.484;10.216;2023-04-29T03:31:06;24.70;;;16.13;;
13571;SDS011;6857;53.484;10.216;2023-04-29T03:33:31;22.57;;;15.87;;
13571;SDS011;6857;53.484;10.216;2023-04-29T03:35:57;19.70;;;15.40;;
13571;SDS011;6857;53.484;10.216;2023-04-29T03:38:23;24.50;;;17.07;;
13571;SDS011;6857;53.484;10.216;2023-04-29T03:40:49;24.17;;;17.17;;
13571;SDS011;6857;53.484;10.216;2023-04-29T03:43:15;23.97;;;17.10;;
13571;SDS011;6857;53.484;10.216;2023-04-29T03:45:41;21.63;;;17.23;;
13571;SDS011;6857;53.484;10.216;2023-04-29T03:48:07;23.50;;;17.63;;
13571;SDS011;6857;53.484;10.216;2023-04-29T03:50:33;23.27;;;17.90;;
13571;SDS011;6857;53.484;10.216;2023-04-29T03:53:00;24.87;;;18.37;;
13571;SDS011;6857;53.484;10.216;2023-04-29T03:55:26;23.80;;;17.73;;
13571;SDS011;6857;53.484;10.216;2023-04-29T03:57:51;22.30;;;18.20;;
13571;SDS011;6857;53.484;10.216;2023-04-29T04:00:17;24.30;;;17.83;;
13571;SDS011;6857;53.484;10.216;2023-04-29T04:02:43;25.10;;;18.53;;
13571;SDS011;6857;53.484;10.216;2023-04-29T04:05:08;23.60;;;17.83;;
13571;SDS011;6857;53.484;10.216;2023-04-29T04:07:35;23.90;;;18.03;;
13571;SDS011;6857;53.484;10.216;2023-04-29T04:10:01;24.50;;;18.67;;
13571;SDS011;6857;53.484;10.216;2023-04-29T04:12:26;26.93;;;18.83;;
13571;SDS011;6857;53.484;10.216;2023-04-29T04:14:52;26.30;;;19.07;;
13571;SDS011;6857;53.484;10.216;2023-04-29T04:17:19;24.40;;;18.63;;
13571;SDS011;6857;53.484;10.216;2023-04-29T04:19:44;27.67;;;18.77;;
13571;SDS011;6857;53.484;10.216;2023-04-29T04:22:10;24.70;;;18.67;;
13571;SDS011;6857;53.484;10.216;2023-04-29T04:24:35;27.67;;;18.87;;
13571;SDS011;6857;53.484;10.216;2023-04-29T04:27:01;24.87;;;18.87;;
13571;SDS011;6857;53.484;10.216;2023-04-29T04:29:27;25.80;;;18.43;;
13571;SDS011;6857;53.484;10.216;2023-04-29T04:31:52;26.30;;;18.93;;
13571;SDS011;6857;53.484;10.216;2023-04-29T04:34:18;22.93;;;18.30;;
13571;SDS011;6857;53.484;10.216;2023-04-29T04:36:44;26.47;;;18.73;;
13571;SDS011;6857;53.484;10.216;2023-04-29T04:39:10;26.67;;;19.27;;
13571;SDS011;6857;53.484;10.216;2023-04-29T04:41:35;25.37;;;18.20;;
13571;SDS011;6857;53.484;10.216;2023-04-29T04:44:02;25.10;;;18.13;;
13571;SDS011;6857;53.484;10.216;2023-04-29T04:46:28;24.13;;;17.87;;
13571;SDS011;6857;53.484;10.216;2023-04-29T04:48:53;24.70;;;17.77;;
13571;SDS011;6857;53.484;10.216;2023-04-29T04:51:19;25.40;;;18.20;;
13571;SDS011;6857;53.484;10.216;2023-04-29T04:53:45;23.87;;;17.60;;
13571;SDS011;6857;53.484;10.216;2023-04-29T04:56:10;27.20;;;17.57;;
13571;SDS011;6857;53.484;10.216;2023-04-29T04:58:36;23.03;;;16.87;;
13571;SDS011;6857;53.484;10.216;2023-04-29T05:01:01;22.93;;;17.03;;
13571;SDS011;6857;53.484;10.216;2023-04-29T05:03:27;22.70;;;18.37;;
13571;SDS011;6857;53.484;10.216;2023-04-29T05:05:56;20.93;;;17.20;;
13571;SDS011;6857;53.484;10.216;2023-04-29T05:08:23;25.17;;;17.10;;
13571;SDS011;6857;53.484;10.216;2023-04-29T05:10:49;20.23;;;16.03;;
13571;SDS011;6857;53.484;10.216;2023-04-29T05:13:15;23.50;;;17.27;;
13571;SDS011;6857;53.484;10.216;2023-04-29T05:15:41;21.97;;;18.10;;
13571;SDS011;6857;53.484;10.216;2023-04-29T05:18:07;21.13;;;16.50;;
13571;SDS011;6857;53.484;10.216;2023-04-29T05:20:32;22.67;;;16.93;;
13571;SDS011;6857;53.484;10.216;2023-04-29T05:22:59;24.00;;;17.37;;
13571;SDS011;6857;53.484;10.216;2023-04-29T05:25:26;21.23;;;16.17;;
13571;SDS011;6857;53.484;10.216;2023-04-29T05:27:51;23.23;;;17.07;;
13571;SDS011;6857;53.484;10.216;2023-04-29T05:30:17;22.37;;;16.67;;
13571;SDS011;6857;53.484;10.216;2023-04-29T05:32:43;23.00;;;16.83;;
13571;SDS011;6857;53.484;10.216;2023-04-29T05:35:12;22.47;;;16.30;;
13571;SDS011;6857;53.484;10.216;2023-04-29T05:37:38;21.27;;;15.83;;
13571;SDS011;6857;53.484;10.216;2023-04-29T05:40:04;19.83;;;15.40;;
13571;SDS011;6857;53.484;10.216;2023-04-29T05:42:31;19.93;;;16.13;;
13571;SDS011;6857;53.484;10.216;2023-04-29T05:44:56;20.07;;;15.40;;
13571;SDS011;6857;53.484;10.216;2023-04-29T05:47:22;22.57;;;16.27;;
13571;SDS011;6857;53.484;10.216;2023-04-29T05:49:47;18.87;;;15.37;;
13571;SDS011;6857;53.484;10.216;2023-04-29T05:52:13;19.43;;;15.53;;
13571;SDS011;6857;53.484;10.216;2023-04-29T05:54:39;22.23;;;16.03;;
13571;SDS011;6857;53.484;10.216;2023-04-29T05:57:05;19.77;;;14.23;;
13571;SDS011;6857;53.484;10.216;2023-04-29T05:59:31;16.63;;;13.20;;
13571;SDS011;6857;53.484;10.216;2023-04-29T06:01:58;19.83;;;13.77;;
13571;SDS011;6857;53.484;10.216;2023-04-29T06:04:24;17.23;;;12.47;;
13571;SDS011;6857;53.484;10.216;2023-04-29T06:06:51;15.60;;;12.63;;
13571;SDS011;6857;53.484;10.216;2023-04-29T06:09:18;19.73;;;13.47;;
13571;SDS011;6857;53.484;10.216;2023-04-29T06:11:44;18.27;;;13.50;;
13571;SDS011;6857;53.484;10.216;2023-04-29T06:14:10;15.97;;;11.87;;
13571;SDS011;6857;53.484;10.216;2023-04-29T06:16:36;16.23;;;12.27;;
13571;SDS011;6857;53.484;10.216;2023-04-29T06:19:01;16.67;;;11.73;;
13571;SDS011;6857;53.484;10.216;2023-04-29T06:21:27;15.33;;;12.17;;
13571;SDS011;6857;53.484;10.216;2023-04-29T06:23:53;13.30;;;10.60;;
13571;SDS011;6857;53.484;10.216;2023-04-29T06:26:19;17.03;;;10.57;;
13571;SDS011;6857;53.484;10.216;2023-04-29T06:28:45;12.67;;;10.47;;
13571;SDS011;6857;53.484;10.216;2023-04-29T06:31:11;12.13;;;9.63;;
13571;SDS011;6857;53.484;10.216;2023-04-29T06:33:37;13.23;;;10.10;;
13571;SDS011;6857;53.484;10.216;2023-04-29T06:36:03;11.67;;;9.37;;
13571;SDS011;6857;53.484;10.216;2023-04-29T06:38:29;13.87;;;9.83;;
13571;SDS011;6857;53.484;10.216;2023-04-29T06:40:55;13.90;;;9.33;;
13571;SDS011;6857;53.484;10.216;2023-04-29T06:43:24;11.33;;;8.67;;
13571;SDS011;6857;53.484;10.216;2023-04-29T06:45:53;11.70;;;8.30;;
13571;SDS011;6857;53.484;10.216;2023-04-29T06:48:18;12.00;;;8.07;;
13571;SDS011;6857;53.484;10.216;2023-04-29T06:50:51;12.50;;;8.27;;
13571;SDS011;6857;53.484;10.216;2023-04-29T06:53:17;13.63;;;8.20;;
13571;SDS011;6857;53.484;10.216;2023-04-29T06:55:44;10.07;;;7.37;;
13571;SDS011;6857;53.484;10.216;2023-04-29T06:58:10;11.53;;;8.03;;
13571;SDS011;6857;53.484;10.216;2023-04-29T07:00:37;11.50;;;7.63;;
13571;SDS011;6857;53.484;10.216;2023-04-29T07:03:03;10.63;;;6.83;;
13571;SDS011;6857;53.484;10.216;2023-04-29T07:05:28;11.73;;;7.23;;
13571;SDS011;6857;53.484;10.216;2023-04-29T07:07:53;12.93;;;6.87;;
13571;SDS011;6857;53.484;10.216;2023-04-29T07:10:19;8.93;;;6.60;;
13571;SDS011;6857;53.484;10.216;2023-04-29T07:12:45;10.07;;;6.67;;
13571;SDS011;6857;53.484;10.216;2023-04-29T07:15:10;9.60;;;6.77;;
13571;SDS011;6857;53.484;10.216;2023-04-29T07:17:36;11.93;;;7.20;;
13571;SDS011;6857;53.484;10.216;2023-04-29T07:20:02;12.20;;;6.90;;
13571;SDS011;6857;53.484;10.216;2023-04-29T07:22:28;13.03;;;7.37;;
13571;SDS011;6857;53.484;10.216;2023-04-29T07:24:53;11.13;;;6.70;;
13571;SDS011;6857;53.484;10.216;2023-04-29T07:27:21;10.57;;;6.93;;
13571;SDS011;6857;53.484;10.216;2023-04-29T07:29:46;9.57;;;6.10;;
13571;SDS011;6857;53.484;10.216;2023-04-29T07:32:12;9.63;;;6.33;;
13571;SDS011;6857;53.484;10.216;2023-04-29T07:34:37;16.17;;;6.57;;
13571;SDS011;6857;53.484;10.216;2023-04-29T07:37:03;9.03;;;6.50;;
13571;SDS011;6857;53.484;10.216;2023-04-29T07:39:29;12.07;;;6.80;;
13571;SDS011;6857;53.484;10.216;2023-04-29T07:41:55;8.97;;;6.20;;
13571;SDS011;6857;53.484;10.216;2023-04-29T07:44:21;9.50;;;6.80;;
13571;SDS011;6857;53.484;10.216;2023-04-29T07:46:47;8.63;;;6.50;;
13571;SDS011;6857;53.484;10.216;2023-04-29T07:49:12;11.93;;;6.93;;
13571;SDS011;6857;53.484;10.216;2023-04-29T07:51:41;8.97;;;6.57;;
13571;SDS011;6857;53.484;10.216;2023-04-29T07:54:07;10.80;;;5.83;;
13571;SDS011;6857;53.484;10.216;2023-04-29T07:56:33;9.90;;;5.90;;
13571;SDS011;6857;53.484;10.216;2023-04-29T07:58:59;8.77;;;5.80;;
13571;SDS011;6857;53.484;10.216;2023-04-29T08:01:25;10.00;;;6.13;;
13571;SDS011;6857;53.484;10.216;2023-04-29T08:03:52;11.83;;;6.17;;
13571;SDS011;6857;53.484;10.216;2023-04-29T08:06:18;9.00;;;5.47;;
13571;SDS011;6857;53.484;10.216;2023-04-29T08:08:46;10.30;;;6.00;;
13571;SDS011;6857;53.484;10.216;2023-04-29T08:11:18;11.13;;;6.40;;
13571;SDS011;6857;53.484;10.216;2023-04-29T08:13:44;7.73;;;5.83;;
13571;SDS011;6857;53.484;10.216;2023-04-29T08:16:10;8.40;;;5.70;;
13571;SDS011;6857;53.484;10.216;2023-04-29T08:18:36;8.27;;;5.80;;
13571;SDS011;6857;53.484;10.216;2023-04-29T08:21:02;8.53;;;5.90;;
13571;SDS011;6857;53.484;10.216;2023-04-29T08:23:28;7.70;;;5.77;;
13571;SDS011;6857;53.484;10.216;2023-04-29T08:25:53;5.70;;;5.10;;
13571;SDS011;6857;53.484;10.216;2023-04-29T08:28:20;10.93;;;6.03;;
13571;SDS011;6857;53.484;10.216;2023-04-29T08:30:46;9.27;;;6.10;;
13571;SDS011;6857;53.484;10.216;2023-04-29T08:33:11;12.43;;;6.27;;
13571;SDS011;6857;53.484;10.216;2023-04-29T08:35:38;8.00;;;6.67;;
13571;SDS011;6857;53.484;10.216;2023-04-29T08:38:04;6.83;;;5.67;;
13571;SDS011;6857;53.484;10.216;2023-04-29T08:40:34;10.07;;;6.00;;
13571;SDS011;6857;53.484;10.216;2023-04-29T08:43:06;9.37;;;6.27;;
13571;SDS011;6857;53.484;10.216;2023-04-29T08:45:33;10.67;;;5.47;;
13571;SDS011;6857;53.484;10.216;2023-04-29T08:48:03;10.27;;;6.57;;
13571;SDS011;6857;53.484;10.216;2023-04-29T08:50:36;8.77;;;6.13;;
13571;SDS011;6857;53.484;10.216;2023-04-29T08:53:09;8.63;;;5.73;;
13571;SDS011;6857;53.484;10.216;2023-04-29T08:55:42;9.87;;;5.50;;
13571;SDS011;6857;53.484;10.216;2023-04-29T08:58:09;7.70;;;5.47;;
13571;SDS011;6857;53.484;10.216;2023-04-29T09:00:36;8.73;;;5.67;;
13571;SDS011;6857;53.484;10.216;2023-04-29T09:03:16;7.60;;;5.50;;
13571;SDS011;6857;53.484;10.216;2023-04-29T09:05:53;8.00;;;5.33;;
13571;SDS011;6857;53.484;10.216;2023-04-29T09:08:20;6.57;;;5.60;;
13571;SDS011;6857;53.484;10.216;2023-04-29T09:10:48;6.53;;;5.83;;
13571;SDS011;6857;53.484;10.216;2023-04-29T09:13:21;7.30;;;5.50;;
13571;SDS011;6857;53.484;10.216;2023-04-29T09:15:55;6.83;;;5.53;;
13571;SDS011;6857;53.484;10.216;2023-04-29T09:18:40;7.23;;;5.30;;
13571;SDS011;6857;53.484;10.216;2023-04-29T09:23:43;8.93;;;5.80;;
13571;SDS011;6857;53.484;10.216;2023-04-29T09:26:10;6.93;;;5.00;;
13571;SDS011;6857;53.484;10.216;2023-04-29T09:28:35;8.43;;;5.20;;
13571;SDS011;6857;53.484;10.216;2023-04-29T09:31:01;7.67;;;5.03;;
13571;SDS011;6857;53.484;10.216;2023-04-29T09:33:44;6.80;;;5.27;;
13571;SDS011;6857;53.484;10.216;2023-04-29T09:36:39;6.23;;;5.17;;
13571;SDS011;6857;53.484;10.216;2023-04-29T09:39:10;7.97;;;5.17;;
13571;SDS011;6857;53.484;10.216;2023-04-29T09:41:38;8.80;;;5.50;;
13571;SDS011;6857;53.484;10.216;2023-04-29T09:46:55;8.53;;;5.70;;
13571;SDS011;6857;53.484;10.216;2023-04-29T09:49:27;7.53;;;5.40;;
13571;SDS011;6857;53.484;10.216;2023-04-29T09:52:00;7.53;;;5.60;;
13571;SDS011;6857;53.484;10.216;2023-04-29T09:54:28;9.40;;;6.17;;
13571;SDS011;6857;53.484;10.216;2023-04-29T09:56:55;6.77;;;5.70;;
13571;SDS011;6857;53.484;10.216;2023-04-29T09:59:23;6.97;;;5.33;;
13571;SDS011;6857;53.484;10.216;2023-04-29T10:01:50;8.67;;;6.43;;
13571;SDS011;6857;53.484;10.216;2023-04-29T10:04:17;9.40;;;6.63;;
13571;SDS011;6857;53.484;10.216;2023-04-29T10:06:45;9.40;;;6.90;;
13571;SDS011;6857;53.484;10.216;2023-04-29T10:09:14;8.00;;;6.57;;
13571;SDS011;6857;53.484;10.216;2023-04-29T10:11:40;11.93;;;7.43;;
13571;SDS011;6857;53.484;10.216;2023-04-29T10:14:10;10.33;;;7.13;;
13571;SDS011;6857;53.484;10.216;2023-04-29T10:16:39;10.93;;;7.23;;
13571;SDS011;6857;53.484;10.216;2023-04-29T10:21:59;10.10;;;6.93;;
13571;SDS011;6857;53.484;10.216;2023-04-29T10:24:31;8.33;;;6.70;;
13571;SDS011;6857;53.484;10.216;2023-04-29T10:26:59;8.73;;;6.57;;
13571;SDS011;6857;53.484;10.216;2023-04-29T10:29:26;8.77;;;6.33;;
13571;SDS011;6857;53.484;10.216;2023-04-29T10:31:56;10.03;;;6.47;;
13571;SDS011;6857;53.484;10.216;2023-04-29T10:34:22;8.10;;;6.30;;
13571;SDS011;6857;53.484;10.216;2023-04-29T10:36:49;10.37;;;6.80;;
13571;SDS011;6857;53.484;10.216;2023-04-29T10:39:18;9.60;;;6.33;;
13571;SDS011;6857;53.484;10.216;2023-04-29T10:41:50;9.37;;;5.87;;
13571;SDS011;6857;53.484;10.216;2023-04-29T10:44:16;10.57;;;5.50;;
13571;SDS011;6857;53.484;10.216;2023-04-29T10:46:41;11.83;;;6.07;;
13571;SDS011;6857;53.484;10.216;2023-04-29T10:49:07;8.07;;;5.67;;
13571;SDS011;6857;53.484;10.216;2023-04-29T10:56:47;6.70;;;5.17;;
13571;SDS011;6857;53.484;10.216;2023-04-29T10:59:20;7.57;;;4.83;;
13571;SDS011;6857;53.484;10.216;2023-04-29T11:01:47;6.60;;;4.53;;
13571;SDS011;6857;53.484;10.216;2023-04-29T11:04:15;5.50;;;4.47;;
13571;SDS011;6857;53.484;10.216;2023-04-29T11:06:43;4.63;;;4.13;;
13571;SDS011;6857;53.484;10.216;2023-04-29T11:09:11;6.30;;;4.30;;
13571;SDS011;6857;53.484;10.216;2023-04-29T11:11:41;7.70;;;4.93;;
13571;SDS011;6857;53.484;10.216;2023-04-29T11:14:11;8.07;;;5.13;;
13571;SDS011;6857;53.484;10.216;2023-04-29T11:16:37;6.20;;;5.13;;
13571;SDS011;6857;53.484;10.216;2023-04-29T11:19:13;8.00;;;5.37;;
13571;SDS011;6857;53.484;10.216;2023-04-29T11:21:40;7.73;;;5.20;;
13571;SDS011;6857;53.484;10.216;2023-04-29T11:24:05;7.50;;;4.80;;
13571;SDS011;6857;53.484;10.216;2023-04-29T11:26:34;7.00;;;5.53;;
13571;SDS011;6857;53.484;10.216;2023-04-29T11:29:00;7.07;;;5.50;;
13571;SDS011;6857;53.484;10.216;2023-04-29T11:31:29;10.97;;;6.37;;
13571;SDS011;6857;53.484;10.216;2023-04-29T11:33:56;8.23;;;6.07;;
13571;SDS011;6857;53.484;10.216;2023-04-29T11:36:22;8.80;;;6.27;;
13571;SDS011;6857;53.484;10.216;2023-04-29T11:38:48;7.27;;;6.20;;
13571;SDS011;6857;53.484;10.216;2023-04-29T11:41:13;8.87;;;6.80;;
13571;SDS011;6857;53.484;10.216;2023-04-29T11:43:39;9.07;;;6.30;;
13571;SDS011;6857;53.484;10.216;2023-04-29T11:46:12;9.20;;;6.50;;
13571;SDS011;6857;53.484;10.216;2023-04-29T11:48:44;9.20;;;6.30;;
13571;SDS011;6857;53.484;10.216;2023-04-29T11:51:11;11.07;;;6.67;;
13571;SDS011;6857;53.484;10.216;2023-04-29T11:53:37;9.23;;;6.33;;
13571;SDS011;6857;53.484;10.216;2023-04-29T11:56:03;7.90;;;6.40;;
13571;SDS011;6857;53.484;10.216;2023-04-29T11:58:29;8.83;;;6.10;;
13571;SDS011;6857;53.484;10.216;2023-04-29T12:00:54;7.90;;;5.53;;
13571;SDS011;6857;53.484;10.216;2023-04-29T12:03:22;6.90;;;5.83;;
13571;SDS011;6857;53.484;10.216;2023-04-29T12:05:52;10.00;;;6.47;;
13571;SDS011;6857;53.484;10.216;2023-04-29T12:08:28;8.17;;;5.60;;
13571;SDS011;6857;53.484;10.216;2023-04-29T12:10:55;10.13;;;6.23;;
13571;SDS011;6857;53.484;10.216;2023-04-29T12:13:23;6.93;;;5.47;;
13571;SDS011;6857;53.484;10.216;2023-04-29T12:15:52;10.73;;;5.70;;
13571;SDS011;6857;53.484;10.216;2023-04-29T12:18:18;9.13;;;6.20;;
13571;SDS011;6857;53.484;10.216;2023-04-29T12:20:46;10.43;;;6.40;;
13571;SDS011;6857;53.484;10.216;2023-04-29T12:23:19;10.33;;;6.93;;
13571;SDS011;6857;53.484;10.216;2023-04-29T12:25:50;7.77;;;6.10;;
13571;SDS011;6857;53.484;10.216;2023-04-29T12:28:25;7.70;;;6.50;;
13571;SDS011;6857;53.484;10.216;2023-04-29T12:30:52;7.43;;;6.03;;
13571;SDS011;6857;53.484;10.216;2023-04-29T12:33:36;7.20;;;5.63;;
13571;SDS011;6857;53.484;10.216;2023-04-29T12:36:02;7.33;;;5.57;;
13571;SDS011;6857;53.484;10.216;2023-04-29T12:38:33;8.13;;;5.47;;
13571;SDS011;6857;53.484;10.216;2023-04-29T12:41:00;7.73;;;5.60;;
13571;SDS011;6857;53.484;10.216;2023-04-29T12:43:29;7.33;;;4.93;;
13571;SDS011;6857;53.484;10.216;2023-04-29T12:46:00;8.30;;;4.93;;
13571;SDS011;6857;53.484;10.216;2023-04-29T12:48:34;7.23;;;5.00;;
13571;SDS011;6857;53.484;10.216;2023-04-29T12:51:07;6.90;;;4.80;;
13571;SDS011;6857;53.484;10.216;2023-04-29T12:53:34;6.60;;;4.73;;
13571;SDS011;6857;53.484;10.216;2023-04-29T12:55:59;7.33;;;4.60;;
13571;SDS011;6857;53.484;10.216;2023-04-29T12:58:28;5.77;;;4.37;;
13571;SDS011;6857;53.484;10.216;2023-04-29T13:00:55;6.40;;;4.47;;
13571;SDS011;6857;53.484;10.216;2023-04-29T13:03:20;6.10;;;4.63;;
13571;SDS011;6857;53.484;10.216;2023-04-29T13:05:46;4.87;;;4.13;;
13571;SDS011;6857;53.484;10.216;2023-04-29T13:08:15;4.40;;;4.00;;
13571;SDS011;6857;53.484;10.216;2023-04-29T13:10:41;6.27;;;4.10;;
13571;SDS011;6857;53.484;10.216;2023-04-29T13:13:07;5.90;;;3.47;;
13571;SDS011;6857;53.484;10.216;2023-04-29T13:15:34;5.93;;;3.63;;
13571;SDS011;6857;53.484;10.216;2023-04-29T13:18:00;5.83;;;4.00;;
13571;SDS011;6857;53.484;10.216;2023-04-29T13:20:26;7.53;;;4.50;;
13571;SDS011;6857;53.484;10.216;2023-04-29T13:22:52;5.03;;;3.87;;
13571;SDS011;6857;53.484;10.216;2023-04-29T13:25:17;4.57;;;3.70;;
13571;SDS011;6857;53.484;10.216;2023-04-29T13:27:43;5.13;;;3.67;;
13571;SDS011;6857;53.484;10.216;2023-04-29T13:30:09;7.10;;;3.60;;
13571;SDS011;6857;53.484;10.216;2023-04-29T13:32:35;7.47;;;4.27;;
13571;SDS011;6857;53.484;10.216;2023-04-29T13:35:01;7.03;;;4.20;;
13571;SDS011;6857;53.484;10.216;2023-04-29T13:37:28;7.27;;;4.00;;
13571;SDS011;6857;53.484;10.216;2023-04-29T13:39:53;5.00;;;4.13;;
13571;SDS011;6857;53.484;10.216;2023-04-29T13:42:19;5.90;;;4.17;;
13571;SDS011;6857;53.484;10.216;2023-04-29T13:44:45;8.30;;;4.37;;
13571;SDS011;6857;53.484;10.216;2023-04-29T13:47:10;7.70;;;4.50;;
13571;SDS011;6857;53.484;10.216;2023-04-29T13:49:39;4.80;;;4.10;;
13571;SDS011;6857;53.484;10.216;2023-04-29T13:52:06;6.43;;;3.73;;
13571;SDS011;6857;53.484;10.216;2023-04-29T13:54:32;6.50;;;4.07;;
13571;SDS011;6857;53.484;10.216;2023-04-29T13:56:58;7.27;;;4.27;;
13571;SDS011;6857;53.484;10.216;2023-04-29T13:59:25;6.27;;;4.07;;
13571;SDS011;6857;53.484;10.216;2023-04-29T14:01:51;8.80;;;4.43;;
13571;SDS011;6857;53.484;10.216;2023-04-29T14:04:17;5.97;;;3.90;;
13571;SDS011;6857;53.484;10.216;2023-04-29T14:06:42;6.93;;;3.80;;
13571;SDS011;6857;53.484;10.216;2023-04-29T14:09:08;6.27;;;3.90;;
13571;SDS011;6857;53.484;10.216;2023-04-29T14:11:34;4.73;;;3.30;;
13571;SDS011;6857;53.484;10.216;2023-04-29T14:14:00;6.20;;;2.90;;
13571;SDS011;6857;53.484;10.216;2023-04-29T14:16:27;5.13;;;3.03;;
13571;SDS011;6857;53.484;10.216;2023-04-29T14:18:53;4.27;;;2.93;;
13571;SDS011;6857;53.484;10.216;2023-04-29T14:21:19;7.87;;;2.83;;
13571;SDS011;6857;53.484;10.216;2023-04-29T14:23:46;4.93;;;2.37;;
13571;SDS011;6857;53.484;10.216;2023-04-29T14:26:12;2.57;;;1.90;;
13571;SDS011;6857;53.484;10.216;2023-04-29T14:28:38;3.87;;;1.83;;
13571;SDS011;6857;53.484;10.216;2023-04-29T14:31:04;3.17;;;2.00;;
13571;SDS011;6857;53.484;10.216;2023-04-29T14:33:29;2.73;;;2.10;;
13571;SDS011;6857;53.484;10.216;2023-04-29T14:35:55;2.50;;;1.90;;
13571;SDS011;6857;53.484;10.216;2023-04-29T14:38:21;2.67;;;2.07;;
13571;SDS011;6857;53.484;10.216;2023-04-29T14:40:47;4.40;;;1.73;;
13571;SDS011;6857;53.484;10.216;2023-04-29T14:43:13;2.77;;;1.87;;
13571;SDS011;6857;53.484;10.216;2023-04-29T14:45:38;3.57;;;2.00;;
13571;SDS011;6857;53.484;10.216;2023-04-29T14:48:05;5.37;;;2.00;;
13571;SDS011;6857;53.484;10.216;2023-04-29T14:50:31;2.83;;;1.90;;
13571;SDS011;6857;53.484;10.216;2023-04-29T14:52:57;2.93;;;1.73;;
13571;SDS011;6857;53.484;10.216;2023-04-29T14:55:23;2.97;;;1.90;;
13571;SDS011;6857;53.484;10.216;2023-04-29T14:57:50;3.87;;;2.30;;